TRA4N EHAM-LOWS
Flight info
| Callsign | TRA4N |
|---|---|
| Flight time | 1h 7m |
| Altitude | 35000 |
| Route | EDUPO Z739 MISGO DCT TIVUN DCT ESAMA DCT OSBIT/N0456F370 DCT BOREP DCT ARMUT/N0464F310 T703 ARBAX/N0465F300 T108 OSTES T700 BADIT BADIT2R |
| Aircraft | B738/M-SDE2E3FGHIRWXY/LB1 |
Departure
| Time | 2026-05-04 13:48 |
|---|---|
| Airport | Amsterdam Airport Schiphol (EHAM) |
Arrival
| Time | 2026-05-04 14:56 |
|---|---|
| Airport | Salzburg Airport (LOWS) |
| Time | Latitude | Longitude | Altitude | Speed | Heading |
|---|---|---|---|---|---|
| 2026-05-04 13:21 | 52.30569 | 4.76479 | 7 ft | 0 kts | 59° |
| 2026-05-04 13:39 | 52.30565 | 4.76469 | 7 ft | 2 kts | 59° |
| 2026-05-04 13:39 | 52.30558 | 4.76448 | 7 ft | 2 kts | 64° |
| 2026-05-04 13:39 | 52.30552 | 4.76426 | 7 ft | 2 kts | 69° |
| 2026-05-04 13:39 | 52.30547 | 4.76402 | 7 ft | 2 kts | 74° |
| 2026-05-04 13:40 | 52.30543 | 4.76379 | 7 ft | 2 kts | 79° |
| 2026-05-04 13:40 | 52.30541 | 4.76364 | 7 ft | 0 kts | 83° |
| 2026-05-04 13:40 | 52.30541 | 4.76355 | 7 ft | 0 kts | 84° |
| 2026-05-04 13:44 | 52.30541 | 4.76357 | 7 ft | 1 kts | 84° |
| 2026-05-04 13:44 | 52.30519 | 4.76420 | 6 ft | 9 kts | 143° |
| 2026-05-04 13:45 | 52.30455 | 4.76490 | 4 ft | 12 kts | 148° |
| 2026-05-04 13:45 | 52.30371 | 4.76575 | 1 ft | 9 kts | 147° |
| 2026-05-04 13:45 | 52.30344 | 4.76678 | 0 ft | 12 kts | 107° |
| 2026-05-04 13:45 | 52.30314 | 4.76817 | 0 ft | 12 kts | 79° |
| 2026-05-04 13:46 | 52.30358 | 4.76943 | 0 ft | 16 kts | 58° |
| 2026-05-04 13:46 | 52.30430 | 4.77130 | 4 ft | 19 kts | 57° |
| 2026-05-04 13:46 | 52.30504 | 4.77323 | 6 ft | 21 kts | 58° |
| 2026-05-04 13:46 | 52.30564 | 4.77504 | 7 ft | 14 kts | 88° |
| 2026-05-04 13:47 | 52.30490 | 4.77612 | 4 ft | 16 kts | 151° |
| 2026-05-04 13:47 | 52.30403 | 4.77613 | 3 ft | 0 kts | 238° |
| 2026-05-04 13:48 | 52.30383 | 4.77558 | 3 ft | 33 kts | 239° |
| 2026-05-04 13:48 | 52.30055 | 4.76703 | -2 ft | 140 kts | 238° |
| 2026-05-04 13:48 | 52.29432 | 4.75083 | 553 ft | 182 kts | 239° |
| 2026-05-04 13:48 | 52.28744 | 4.73337 | 1749 ft | 191 kts | 239° |
| 2026-05-04 13:49 | 52.28035 | 4.71479 | 2598 ft | 204 kts | 240° |
| 2026-05-04 13:49 | 52.27233 | 4.69526 | 3433 ft | 219 kts | 229° |
| 2026-05-04 13:49 | 52.25894 | 4.68233 | 4258 ft | 240 kts | 189° |
| 2026-05-04 13:49 | 52.24283 | 4.68658 | 5702 ft | 247 kts | 152° |
| 2026-05-04 13:50 | 52.23054 | 4.70471 | 7217 ft | 249 kts | 125° |
| 2026-05-04 13:50 | 52.22162 | 4.72857 | 8488 ft | 259 kts | 121° |
| 2026-05-04 13:50 | 52.21251 | 4.75477 | 9587 ft | 276 kts | 121° |
| 2026-05-04 13:50 | 52.20268 | 4.78263 | 10658 ft | 292 kts | 121° |
| 2026-05-04 13:51 | 52.19305 | 4.81275 | 11614 ft | 312 kts | 113° |
| 2026-05-04 13:51 | 52.18639 | 4.84704 | 12557 ft | 329 kts | 105° |
| 2026-05-04 13:51 | 52.18118 | 4.88403 | 13521 ft | 345 kts | 103° |
| 2026-05-04 13:51 | 52.17619 | 4.92229 | 14669 ft | 351 kts | 103° |
| 2026-05-04 13:52 | 52.16542 | 5.00028 | 16934 ft | 361 kts | 104° |
| 2026-05-04 13:52 | 52.15955 | 5.04018 | 17936 ft | 368 kts | 105° |
| 2026-05-04 13:52 | 52.15348 | 5.08061 | 18912 ft | 374 kts | 105° |
| 2026-05-04 13:53 | 52.14723 | 5.12188 | 19864 ft | 380 kts | 105° |
| 2026-05-04 13:53 | 52.14086 | 5.16380 | 20714 ft | 388 kts | 105° |
| 2026-05-04 13:53 | 52.13435 | 5.20646 | 21580 ft | 394 kts | 106° |
| 2026-05-04 13:54 | 52.12098 | 5.29364 | 23280 ft | 405 kts | 107° |
| 2026-05-04 13:54 | 52.11418 | 5.33821 | 24070 ft | 411 kts | 107° |
| 2026-05-04 13:54 | 52.10069 | 5.42896 | 25760 ft | 417 kts | 107° |
| 2026-05-04 13:55 | 52.09360 | 5.47485 | 26533 ft | 421 kts | 108° |
| 2026-05-04 13:55 | 52.07886 | 5.56793 | 27847 ft | 432 kts | 109° |
| 2026-05-04 13:55 | 52.07083 | 5.61493 | 28601 ft | 433 kts | 112° |
| 2026-05-04 13:56 | 52.06009 | 5.66032 | 29241 ft | 432 kts | 121° |
| 2026-05-04 13:56 | 52.04535 | 5.70230 | 29935 ft | 428 kts | 130° |
| 2026-05-04 13:56 | 52.00873 | 5.77795 | 31136 ft | 431 kts | 137° |
| 2026-05-04 13:57 | 51.98894 | 5.81464 | 31761 ft | 433 kts | 138° |
| 2026-05-04 13:57 | 51.96883 | 5.85122 | 32162 ft | 441 kts | 138° |
| 2026-05-04 13:58 | 51.90730 | 5.96361 | 33665 ft | 454 kts | 137° |
| 2026-05-04 13:58 | 51.86536 | 6.04090 | 34647 ft | 461 kts | 137° |
| 2026-05-04 13:58 | 51.84419 | 6.07996 | 34924 ft | 467 kts | 137° |
| 2026-05-04 13:59 | 51.80179 | 6.15803 | 34948 ft | 458 kts | 137° |
| 2026-05-04 14:00 | 51.73880 | 6.27328 | 34946 ft | 457 kts | 137° |
| 2026-05-04 14:00 | 51.67576 | 6.38793 | 34945 ft | 459 kts | 137° |
| 2026-05-04 14:01 | 51.63374 | 6.46413 | 34945 ft | 457 kts | 137° |
| 2026-05-04 14:02 | 51.57045 | 6.57847 | 34943 ft | 459 kts | 137° |
| 2026-05-04 14:02 | 51.52815 | 6.65463 | 34944 ft | 456 kts | 138° |
| 2026-05-04 14:03 | 51.48588 | 6.73052 | 34939 ft | 459 kts | 138° |
| 2026-05-04 14:03 | 51.44349 | 6.80637 | 34948 ft | 456 kts | 138° |
| 2026-05-04 14:04 | 51.38213 | 6.92323 | 34950 ft | 463 kts | 132° |
| 2026-05-04 14:04 | 51.34582 | 7.00805 | 34949 ft | 465 kts | 129° |
| 2026-05-04 14:05 | 51.29233 | 7.13665 | 34945 ft | 465 kts | 130° |
| 2026-05-04 14:06 | 51.25622 | 7.22162 | 34946 ft | 463 kts | 130° |
| 2026-05-04 14:06 | 51.21980 | 7.30639 | 34950 ft | 465 kts | 130° |
| 2026-05-04 14:07 | 51.18330 | 7.39108 | 34950 ft | 467 kts | 130° |
| 2026-05-04 14:07 | 51.14668 | 7.47573 | 34949 ft | 466 kts | 130° |
| 2026-05-04 14:08 | 51.10989 | 7.56026 | 34953 ft | 466 kts | 130° |
| 2026-05-04 14:08 | 51.07308 | 7.64448 | 34953 ft | 466 kts | 130° |
| 2026-05-04 14:09 | 51.01780 | 7.77042 | 34955 ft | 465 kts | 130° |
| 2026-05-04 14:10 | 50.96237 | 7.89611 | 34963 ft | 465 kts | 131° |
| 2026-05-04 14:10 | 50.92426 | 7.97822 | 34965 ft | 462 kts | 135° |
| 2026-05-04 14:11 | 50.88067 | 8.05196 | 34972 ft | 458 kts | 141° |
| 2026-05-04 14:11 | 50.81173 | 8.15578 | 34977 ft | 457 kts | 142° |
| 2026-05-04 14:12 | 50.76567 | 8.22455 | 34972 ft | 458 kts | 142° |
| 2026-05-04 14:13 | 50.69678 | 8.32797 | 34962 ft | 458 kts | 141° |
| 2026-05-04 14:13 | 50.65090 | 8.39700 | 34958 ft | 457 kts | 141° |
| 2026-05-04 14:14 | 50.60488 | 8.46618 | 34954 ft | 458 kts | 141° |
| 2026-05-04 14:14 | 50.53586 | 8.56971 | 34946 ft | 458 kts | 141° |
| 2026-05-04 14:15 | 50.44344 | 8.70741 | 34934 ft | 459 kts | 142° |
| 2026-05-04 14:16 | 50.37434 | 8.81064 | 34930 ft | 460 kts | 140° |
| 2026-05-04 14:17 | 50.33414 | 8.88906 | 34924 ft | 469 kts | 126° |
| 2026-05-04 14:17 | 50.31828 | 8.93367 | 34927 ft | 472 kts | 121° |
| 2026-05-04 14:18 | 50.27703 | 9.07396 | 34925 ft | 475 kts | 117° |
| 2026-05-04 14:19 | 50.22389 | 9.26206 | 34938 ft | 474 kts | 118° |
| 2026-05-04 14:19 | 50.19676 | 9.35540 | 34941 ft | 474 kts | 118° |
| 2026-05-04 14:20 | 50.16931 | 9.44881 | 34949 ft | 474 kts | 118° |
| 2026-05-04 14:20 | 50.14176 | 9.54199 | 34951 ft | 475 kts | 118° |
| 2026-05-04 14:21 | 50.10029 | 9.68149 | 34951 ft | 475 kts | 119° |
| 2026-05-04 14:21 | 50.07435 | 9.77590 | 34941 ft | 477 kts | 113° |
| 2026-05-04 14:22 | 50.05702 | 9.87572 | 34943 ft | 481 kts | 105° |
| 2026-05-04 14:22 | 50.04459 | 9.97769 | 34944 ft | 480 kts | 103° |
| 2026-05-04 14:23 | 50.02731 | 10.13069 | 34948 ft | 481 kts | 103° |
| 2026-05-04 14:24 | 50.01531 | 10.23237 | 34942 ft | 480 kts | 103° |
| 2026-05-04 14:24 | 50.00293 | 10.33395 | 34938 ft | 480 kts | 103° |
| 2026-05-04 14:25 | 49.99024 | 10.43556 | 34939 ft | 480 kts | 103° |
| 2026-05-04 14:26 | 49.95881 | 10.68246 | 34939 ft | 481 kts | 104° |
| 2026-05-04 14:26 | 49.94502 | 10.78381 | 34939 ft | 479 kts | 105° |
| 2026-05-04 14:27 | 49.93101 | 10.88469 | 34940 ft | 479 kts | 105° |
| 2026-05-04 14:27 | 49.91692 | 10.98562 | 34938 ft | 479 kts | 104° |
| 2026-05-04 14:28 | 49.90280 | 11.08643 | 34940 ft | 480 kts | 104° |
| 2026-05-04 14:28 | 49.88872 | 11.18665 | 34945 ft | 479 kts | 104° |
| 2026-05-04 14:29 | 49.86071 | 11.38431 | 34948 ft | 480 kts | 104° |
| 2026-05-04 14:30 | 49.84631 | 11.48496 | 34947 ft | 480 kts | 104° |
| 2026-05-04 14:31 | 49.82460 | 11.63587 | 34955 ft | 480 kts | 104° |
| 2026-05-04 14:32 | 49.78020 | 11.93867 | 34977 ft | 480 kts | 105° |
| 2026-05-04 14:33 | 49.76534 | 12.03874 | 34976 ft | 480 kts | 105° |
| 2026-05-04 14:33 | 49.75035 | 12.13905 | 34971 ft | 480 kts | 105° |
| 2026-05-04 14:34 | 49.73450 | 12.23880 | 34966 ft | 479 kts | 109° |
| 2026-05-04 14:34 | 49.70552 | 12.32959 | 34963 ft | 471 kts | 130° |
| 2026-05-04 14:35 | 49.65898 | 12.39862 | 34965 ft | 464 kts | 144° |
| 2026-05-04 14:35 | 49.60809 | 12.45927 | 34959 ft | 463 kts | 146° |
| 2026-05-04 14:36 | 49.55632 | 12.51799 | 34959 ft | 462 kts | 148° |
| 2026-05-04 14:36 | 49.50321 | 12.57286 | 34953 ft | 460 kts | 150° |
| 2026-05-04 14:37 | 49.44955 | 12.62626 | 34950 ft | 461 kts | 150° |
| 2026-05-04 14:37 | 49.39604 | 12.67959 | 34946 ft | 460 kts | 150° |
| 2026-05-04 14:38 | 49.34250 | 12.73328 | 34941 ft | 461 kts | 150° |
| 2026-05-04 14:38 | 49.31583 | 12.76014 | 34792 ft | 456 kts | 150° |
| 2026-05-04 14:38 | 49.28962 | 12.78658 | 34246 ft | 450 kts | 150° |
| 2026-05-04 14:38 | 49.26365 | 12.81278 | 33531 ft | 447 kts | 150° |
| 2026-05-04 14:39 | 49.23776 | 12.83886 | 32733 ft | 446 kts | 150° |
| 2026-05-04 14:39 | 49.21187 | 12.86442 | 31908 ft | 445 kts | 152° |
| 2026-05-04 14:39 | 49.18505 | 12.88726 | 31064 ft | 443 kts | 158° |
| 2026-05-04 14:40 | 49.12677 | 12.91322 | 29302 ft | 438 kts | 176° |
| 2026-05-04 14:40 | 49.09667 | 12.91638 | 28380 ft | 435 kts | 182° |
| 2026-05-04 14:40 | 49.06658 | 12.91519 | 27421 ft | 434 kts | 187° |
| 2026-05-04 14:40 | 49.03704 | 12.90853 | 26429 ft | 431 kts | 195° |
| 2026-05-04 14:41 | 49.00863 | 12.89526 | 25431 ft | 429 kts | 202° |
| 2026-05-04 14:41 | 48.98121 | 12.87814 | 24366 ft | 429 kts | 206° |
| 2026-05-04 14:41 | 48.92737 | 12.83957 | 22833 ft | 436 kts | 207° |
| 2026-05-04 14:42 | 48.87249 | 12.79910 | 21357 ft | 436 kts | 207° |
| 2026-05-04 14:42 | 48.84552 | 12.77939 | 20598 ft | 428 kts | 207° |
| 2026-05-04 14:42 | 48.81910 | 12.76019 | 19850 ft | 420 kts | 207° |
| 2026-05-04 14:43 | 48.79306 | 12.74137 | 19104 ft | 412 kts | 206° |
| 2026-05-04 14:43 | 48.76753 | 12.72300 | 18389 ft | 405 kts | 206° |
| 2026-05-04 14:43 | 48.74224 | 12.70538 | 17676 ft | 398 kts | 204° |
| 2026-05-04 14:43 | 48.71656 | 12.69141 | 16966 ft | 392 kts | 196° |
| 2026-05-04 14:44 | 48.68990 | 12.68595 | 16261 ft | 388 kts | 182° |
| 2026-05-04 14:44 | 48.66328 | 12.68872 | 15568 ft | 384 kts | 174° |
| 2026-05-04 14:44 | 48.63668 | 12.69481 | 14882 ft | 394 kts | 172° |
| 2026-05-04 14:44 | 48.60967 | 12.70209 | 14159 ft | 398 kts | 171° |
| 2026-05-04 14:45 | 48.58272 | 12.70943 | 13422 ft | 391 kts | 172° |
| 2026-05-04 14:45 | 48.55622 | 12.71591 | 12701 ft | 383 kts | 172° |
| 2026-05-04 14:45 | 48.53015 | 12.72172 | 11992 ft | 376 kts | 173° |
| 2026-05-04 14:45 | 48.50467 | 12.72712 | 11443 ft | 365 kts | 173° |
| 2026-05-04 14:46 | 48.48011 | 12.73225 | 11110 ft | 349 kts | 173° |
| 2026-05-04 14:46 | 48.45666 | 12.73715 | 10928 ft | 331 kts | 173° |
| 2026-05-04 14:46 | 48.43407 | 12.74189 | 10786 ft | 329 kts | 172° |
| 2026-05-04 14:46 | 48.41166 | 12.74662 | 10636 ft | 318 kts | 172° |
| 2026-05-04 14:47 | 48.39045 | 12.75187 | 10497 ft | 303 kts | 169° |
| 2026-05-04 14:47 | 48.36990 | 12.75857 | 10193 ft | 304 kts | 167° |
| 2026-05-04 14:47 | 48.34939 | 12.76624 | 9855 ft | 304 kts | 166° |
| 2026-05-04 14:47 | 48.32906 | 12.77404 | 9512 ft | 300 kts | 166° |
| 2026-05-04 14:48 | 48.30890 | 12.78166 | 9169 ft | 300 kts | 166° |
| 2026-05-04 14:48 | 48.28867 | 12.78916 | 8827 ft | 300 kts | 166° |
| 2026-05-04 14:48 | 48.26844 | 12.79656 | 8485 ft | 299 kts | 166° |
| 2026-05-04 14:48 | 48.24823 | 12.80391 | 8142 ft | 299 kts | 166° |
| 2026-05-04 14:49 | 48.22805 | 12.81122 | 7804 ft | 298 kts | 166° |
| 2026-05-04 14:49 | 48.20794 | 12.81851 | 7467 ft | 298 kts | 166° |
| 2026-05-04 14:49 | 48.18784 | 12.82578 | 7131 ft | 297 kts | 165° |
| 2026-05-04 14:49 | 48.16775 | 12.83305 | 6793 ft | 298 kts | 165° |
| 2026-05-04 14:50 | 48.14768 | 12.84031 | 6482 ft | 296 kts | 165° |
| 2026-05-04 14:50 | 48.12766 | 12.84756 | 6211 ft | 297 kts | 165° |
| 2026-05-04 14:50 | 48.10761 | 12.85482 | 5973 ft | 297 kts | 165° |
| 2026-05-04 14:50 | 48.08750 | 12.86209 | 5734 ft | 298 kts | 165° |
| 2026-05-04 14:51 | 48.06743 | 12.86934 | 5486 ft | 294 kts | 165° |
| 2026-05-04 14:51 | 48.04826 | 12.87622 | 5225 ft | 275 kts | 164° |
| 2026-05-04 14:51 | 48.03021 | 12.88270 | 4988 ft | 258 kts | 164° |
| 2026-05-04 14:51 | 48.01326 | 12.88879 | 4747 ft | 244 kts | 164° |
| 2026-05-04 14:52 | 47.99691 | 12.89312 | 4517 ft | 234 kts | 172° |
| 2026-05-04 14:52 | 47.98095 | 12.89409 | 4286 ft | 225 kts | 177° |
| 2026-05-04 14:52 | 47.96563 | 12.89503 | 4057 ft | 215 kts | 167° |
| 2026-05-04 14:52 | 47.95197 | 12.90154 | 4029 ft | 200 kts | 150° |
| 2026-05-04 14:53 | 47.93945 | 12.91062 | 4016 ft | 203 kts | 154° |
| 2026-05-04 14:53 | 47.92569 | 12.91591 | 3951 ft | 206 kts | 162° |
| 2026-05-04 14:53 | 47.91256 | 12.92407 | 3712 ft | 202 kts | 146° |
| 2026-05-04 14:53 | 47.90037 | 12.93429 | 3446 ft | 198 kts | 149° |
| 2026-05-04 14:54 | 47.88799 | 12.94295 | 3167 ft | 195 kts | 152° |
| 2026-05-04 14:54 | 47.87580 | 12.95104 | 2922 ft | 189 kts | 152° |
| 2026-05-04 14:54 | 47.86418 | 12.95860 | 2683 ft | 173 kts | 153° |
| 2026-05-04 14:54 | 47.85380 | 12.96524 | 2450 ft | 159 kts | 153° |
| 2026-05-04 14:55 | 47.84394 | 12.97161 | 2250 ft | 152 kts | 153° |
| 2026-05-04 14:55 | 47.83404 | 12.97808 | 2074 ft | 157 kts | 152° |
| 2026-05-04 14:55 | 47.82430 | 12.98445 | 1835 ft | 154 kts | 155° |
| 2026-05-04 14:55 | 47.81435 | 12.99057 | 1662 ft | 156 kts | 154° |
| 2026-05-04 14:56 | 47.80465 | 12.99678 | 1462 ft | 150 kts | 155° |
| 2026-05-04 14:56 | 47.79574 | 13.00246 | 1409 ft | 108 kts | 157° |
| 2026-05-04 14:56 | 47.79189 | 13.00486 | 1410 ft | 14 kts | 156° |
| 2026-05-04 14:56 | 47.79133 | 13.00498 | 1410 ft | 13 kts | 210° |
| 2026-05-04 14:57 | 47.79115 | 13.00416 | 1412 ft | 5 kts | 277° |
| 2026-05-04 14:57 | 47.79120 | 13.00354 | 1413 ft | 0 kts | 275° |
| 2026-05-04 14:58 | 47.79120 | 13.00347 | 1413 ft | 3 kts | 275° |
| 2026-05-04 14:58 | 47.79130 | 13.00279 | 1415 ft | 10 kts | 296° |
| 2026-05-04 14:58 | 47.79231 | 13.00190 | 1415 ft | 19 kts | 337° |
| 2026-05-04 14:59 | 47.79341 | 13.00115 | 1414 ft | 11 kts | 312° |
| 2026-05-04 14:59 | 47.79342 | 13.00015 | 1416 ft | 8 kts | 248° |
| 2026-05-04 14:59 | 47.79287 | 12.99946 | 1420 ft | 8 kts | 171° |
| 2026-05-04 15:00 | 47.79245 | 12.99964 | 1419 ft | 1 kts | 211° |
| 2026-05-04 15:00 | 47.79242 | 12.99946 | 1420 ft | 1 kts | 266° |
| 2026-05-04 15:00 | 47.79251 | 12.99870 | 1425 ft | 6 kts | 282° |
| 2026-05-04 15:01 | 47.79253 | 12.99855 | 1425 ft | 0 kts | 282° |